Time;durP1;ratioP1;P1;durP2;ratioP2;P2;SDS_P1;SDS_P2;PMS_P1;PMS_P2;Temp;Humidity;BMP_temperature;BMP_pressure;BME280_temperature;BME280_humidity;BME280_pressure;Samples;Min_cycle;Max_cycle;Signal;HPM_P1;HPM_P2
2022/04/10 00:00:13;;;;;;;31.43;11.60;;;;;;;2.60;76.11;98255.13;2242563;79;21005;-60
2022/04/10 00:03:16;;;;;;;35.28;11.35;;;;;;;2.58;75.86;98258.23;2211311;79;21001;-60
2022/04/10 00:06:17;;;;;;;33.53;10.98;;;;;;;2.51;75.69;98260.20;2242812;79;20980;-60
2022/04/10 00:09:19;;;;;;;29.55;10.15;;;;;;;2.49;73.64;98258.59;2240343;79;20997;-59
2022/04/10 00:12:20;;;;;;;30.25;10.60;;;;;;;2.30;75.26;98264.88;2239696;79;21559;-60
2022/04/10 00:15:22;;;;;;;31.60;10.60;;;;;;;2.18;76.41;98263.58;2244067;78;21028;-60
2022/04/10 00:18:23;;;;;;;27.32;9.03;;;;;;;2.08;77.54;98268.23;2229170;79;21046;-60
2022/04/10 00:21:25;;;;;;;30.07;10.20;;;;;;;1.99;75.73;98269.86;2240201;79;20969;-60
2022/04/10 00:24:28;;;;;;;30.35;10.25;;;;;;;1.88;76.15;98273.67;2233989;79;21005;-60
2022/04/10 00:27:29;;;;;;;32.10;11.43;;;;;;;1.88;76.24;98269.80;2236685;79;21070;-60
2022/04/10 00:30:32;;;;;;;30.45;11.20;;;;;;;2.01;75.84;98274.09;2234778;79;21490;-60
2022/04/10 00:33:34;;;;;;;37.58;13.62;;;;;;;2.20;75.91;98276.03;2230692;79;21013;-60
2022/04/10 00:36:35;;;;;;;33.23;12.90;;;;;;;2.28;76.02;98272.70;2225982;79;21040;-60
2022/04/10 00:39:37;;;;;;;45.25;17.30;;;;;;;2.31;76.12;98280.80;2240724;79;20998;-60
2022/04/10 00:42:39;;;;;;;39.78;13.70;;;;;;;2.39;75.73;98287.39;2238168;79;20996;-59
2022/04/10 00:45:40;;;;;;;43.40;15.65;;;;;;;2.47;74.71;98291.45;2222728;79;20956;-59
2022/04/10 00:48:42;;;;;;;63.55;19.60;;;;;;;2.48;74.06;98301.74;2239396;79;20985;-60
2022/04/10 00:51:46;;;;;;;44.70;14.00;;;;;;;2.46;74.26;98298.80;2242083;79;20960;-60
2022/04/10 00:54:46;;;;;;;33.42;11.00;;;;;;;2.51;74.19;98309.85;2214999;79;20997;-59
2022/04/10 00:57:48;;;;;;;32.35;10.55;;;;;;;2.55;74.30;98311.44;2238590;79;21475;-59
2022/04/10 01:00:49;;;;;;;30.77;10.53;;;;;;;2.55;74.18;98321.79;2245473;79;20997;-59
2022/04/10 01:03:51;;;;;;;31.17;10.08;;;;;;;2.48;75.88;98312.09;2281639;77;21495;-61
2022/04/10 01:06:54;;;;;;;28.42;9.98;;;;;;;2.38;75.86;98315.92;2283054;77;21008;-60
2022/04/10 01:09:56;;;;;;;;;;;;;;;2.30;77.66;98320.52;2288132;77;20990;-60
2022/04/10 01:12:57;;;;;;;33.95;11.03;;;;;;;2.23;77.87;98313.44;2284621;77;20402;-59
2022/04/10 01:15:59;;;;;;;34.40;11.43;;;;;;;2.16;78.37;98315.84;2284415;77;21008;-59
2022/04/10 01:19:00;;;;;;;35.58;11.78;;;;;;;2.17;80.11;98331.31;2283595;77;20950;-59
2022/04/10 01:22:02;;;;;;;30.43;11.15;;;;;;;2.17;78.88;98336.49;2284510;77;20976;-59
2022/04/10 01:25:03;;;;;;;36.20;11.55;;;;;;;2.23;77.84;98345.79;2281640;78;20961;-59
2022/04/10 01:28:05;;;;;;;36.98;13.00;;;;;;;2.22;76.66;98351.85;2286178;77;21507;-59
2022/04/10 01:31:06;;;;;;;37.60;12.13;;;;;;;2.09;76.56;98351.43;2282475;77;20981;-59
2022/04/10 01:34:07;;;;;;;33.58;12.15;;;;;;;2.00;76.67;98356.47;2284130;77;21076;-59
2022/04/10 01:37:09;;;;;;;37.23;12.80;;;;;;;1.91;77.14;98355.47;2283954;77;21122;-60
2022/04/10 01:40:10;;;;;;;29.95;10.35;;;;;;;1.71;79.26;98356.12;2283925;77;20981;-60
2022/04/10 01:43:12;;;;;;;44.13;13.43;;;;;;;1.58;80.24;98358.71;2283595;77;20988;-60
2022/04/10 01:46:13;;;;;;;38.60;13.85;;;;;;;1.54;78.85;98358.81;2283055;77;20953;-61
2022/04/10 01:49:15;;;;;;;31.85;10.25;;;;;;;1.43;78.51;98358.30;2285433;77;20985;-60
2022/04/10 01:52:18;;;;;;;28.50;9.48;;;;;;;1.44;81.86;98360.44;2246183;78;21499;-60
2022/04/10 01:55:19;;;;;;;27.73;9.55;;;;;;;1.45;84.54;98367.30;2236078;79;21020;-59
2022/04/10 01:58:21;;;;;;;30.50;9.40;;;;;;;1.44;82.21;98363.88;2281625;77;20982;-61
2022/04/10 02:01:22;;;;;;;27.22;9.28;;;;;;;1.48;82.49;98364.19;2279472;78;20984;-61
2022/04/10 02:04:24;;;;;;;27.05;8.30;;;;;;;1.52;81.93;98370.09;2280684;78;21040;-60
2022/04/10 02:07:25;;;;;;;28.75;9.60;;;;;;;1.46;80.34;98363.83;2282922;77;20949;-60
2022/04/10 02:10:27;;;;;;;27.65;9.65;;;;;;;1.49;82.31;98367.15;2279638;78;20980;-59
2022/04/10 02:13:28;;;;;;;26.82;9.78;;;;;;;1.50;82.01;98371.44;2281145;77;21538;-60
2022/04/10 02:16:30;;;;;;;29.12;9.55;;;;;;;1.44;86.84;98370.77;2280928;77;21052;-60
2022/04/10 02:19:32;;;;;;;27.82;9.53;;;;;;;1.40;84.19;98373.08;2284025;77;21535;-60
2022/04/10 02:22:33;;;;;;;30.05;10.55;;;;;;;1.32;86.43;98378.03;2246608;79;21072;-59
2022/04/10 02:25:35;;;;;;;24.65;8.40;;;;;;;1.29;86.63;98379.39;2248166;78;21661;-59
2022/04/10 02:28:36;;;;;;;29.25;9.10;;;;;;;1.27;89.01;98381.66;2244667;79;21158;-59
2022/04/10 02:31:38;;;;;;;30.20;11.12;;;;;;;1.37;87.44;98385.64;2237451;79;21662;-60
2022/04/10 02:34:39;;;;;;;26.85;9.20;;;;;;;1.41;88.39;98382.50;2239075;79;21007;-60
2022/04/10 02:37:45;;;;;;;25.08;8.90;;;;;;;1.46;87.00;98384.51;2226572;79;21055;-60
2022/04/10 02:40:44;;;;;;;28.10;8.98;;;;;;;1.45;88.85;98378.93;2215432;79;21519;-60
2022/04/10 02:43:46;;;;;;;30.37;9.90;;;;;;;1.50;87.30;98386.95;2246373;79;20961;-60
2022/04/10 02:46:47;;;;;;;30.23;9.60;;;;;;;1.51;87.79;98381.34;2242263;78;21068;-59
2022/04/10 02:49:48;;;;;;;29.32;9.95;;;;;;;1.53;86.28;98380.38;2242603;79;21033;-60
2022/04/10 02:52:51;;;;;;;28.85;9.08;;;;;;;1.46;88.92;98383.22;2239730;79;20975;-60
2022/04/10 02:55:53;;;;;;;29.18;9.30;;;;;;;1.48;90.53;98378.83;2237182;79;21047;-59
2022/04/10 02:58:54;;;;;;;27.07;8.85;;;;;;;1.34;87.66;98389.16;2235431;79;21530;-59
2022/04/10 03:01:56;;;;;;;29.23;10.48;;;;;;;1.29;88.76;98387.14;2238935;79;21051;-60
2022/04/10 03:04:57;;;;;;;35.13;11.33;;;;;;;1.43;87.09;98387.20;2233611;79;21020;-60
2022/04/10 03:07:58;;;;;;;29.95;9.53;;;;;;;1.41;87.67;98383.36;2227746;79;21026;-60
2022/04/10 03:11:00;;;;;;;28.92;9.00;;;;;;;1.47;89.05;98390.09;2244487;79;21001;-60
2022/04/10 03:14:02;;;;;;;27.90;9.40;;;;;;;1.44;89.71;98387.14;2242746;78;21534;-59
2022/04/10 03:17:03;;;;;;;30.85;9.38;;;;;;;1.44;89.30;98390.16;2242899;79;21028;-60
2022/04/10 03:20:05;;;;;;;27.30;9.20;;;;;;;1.40;88.63;98393.75;2238878;79;21020;-60
2022/04/10 03:23:10;;;;;;;25.48;9.00;;;;;;;1.34;89.97;98398.20;2273947;78;21099;-59
2022/04/10 03:26:10;;;;;;;28.73;9.33;;;;;;;1.36;88.24;98408.03;2215775;79;20974;-59
2022/04/10 03:29:12;;;;;;;26.62;8.20;;;;;;;1.35;87.99;98403.78;2235759;79;20984;-60
2022/04/10 03:32:14;;;;;;;27.25;9.18;;;;;;;1.42;87.61;98412.17;2233759;79;21000;-60
2022/04/10 03:35:15;;;;;;;29.03;8.90;;;;;;;1.46;85.69;98416.82;2241222;79;20999;-60
2022/04/10 03:38:17;;;;;;;26.50;8.40;;;;;;;1.52;85.18;98421.36;2227954;79;21048;-59
2022/04/10 03:41:19;;;;;;;31.48;9.23;;;;;;;1.61;83.33;98425.83;2242632;79;21067;-59
2022/04/10 03:44:20;;;;;;;31.50;10.03;;;;;;;1.66;82.57;98429.97;2242143;79;21000;-59
2022/04/10 03:47:21;;;;;;;30.30;10.10;;;;;;;1.76;81.72;98442.16;2237560;79;21044;-60
2022/04/10 03:50:23;;;;;;;32.30;10.58;;;;;;;1.75;81.83;98445.64;2238957;79;21001;-60
2022/04/10 03:53:24;;;;;;;34.70;11.90;;;;;;;1.72;81.99;98451.78;2232697;79;21012;-60
2022/04/10 03:56:26;;;;;;;31.42;11.05;;;;;;;1.69;82.37;98450.55;2230577;79;20975;-60
2022/04/10 03:59:27;;;;;;;43.55;16.05;;;;;;;1.56;83.50;98455.25;2237018;79;21025;-60
2022/04/10 04:02:29;;;;;;;33.28;11.15;;;;;;;1.47;84.62;98458.58;2237826;79;20956;-59
2022/04/10 04:05:30;;;;;;;28.32;9.60;;;;;;;1.36;85.73;98458.43;2246576;79;21001;-59
2022/04/10 04:08:32;;;;;;;29.57;10.82;;;;;;;1.30;86.52;98462.49;2235533;79;21039;-60
2022/04/10 04:11:33;;;;;;;30.12;10.03;;;;;;;1.34;84.81;98459.39;2240224;79;21001;-60
2022/04/10 04:14:35;;;;;;;26.97;9.85;;;;;;;1.35;84.50;98468.81;2226618;79;21036;-60
2022/04/10 04:17:36;;;;;;;27.87;9.75;;;;;;;1.29;85.00;98471.13;2235375;79;20993;-59
2022/04/10 04:20:38;;;;;;;26.30;9.15;;;;;;;1.27;85.58;98474.67;2235546;79;21051;-60
2022/04/10 04:23:39;;;;;;;27.07;9.33;;;;;;;1.23;87.44;98475.19;2240631;79;21519;-61
2022/04/10 04:26:41;;;;;;;29.52;10.10;;;;;;;1.26;89.20;98475.09;2242176;79;20980;-59
2022/04/10 04:29:42;;;;;;;30.70;9.87;;;;;;;1.27;89.20;98485.01;2259459;78;20992;-59
2022/04/10 04:32:43;;;;;;;28.15;9.48;;;;;;;1.35;89.64;98479.16;2239397;79;21527;-60
2022/04/10 04:35:45;;;;;;;28.12;9.50;;;;;;;1.38;89.70;98481.22;2242431;79;21017;-59
2022/04/10 04:38:47;;;;;;;30.08;9.20;;;;;;;1.49;90.14;98487.80;2246682;79;22212;-60
2022/04/10 04:41:48;;;;;;;26.97;8.60;;;;;;;1.58;90.44;98487.55;2245397;79;21047;-60
2022/04/10 04:44:50;;;;;;;27.67;9.13;;;;;;;1.65;90.89;98492.94;2227724;79;20996;-60
2022/04/10 04:47:51;;;;;;;27.32;8.93;;;;;;;1.64;91.79;98487.78;2244390;79;21035;-60
2022/04/10 04:50:53;;;;;;;25.70;9.13;;;;;;;1.72;92.34;98492.28;2244386;79;21008;-60
2022/04/10 04:53:54;;;;;;;24.12;8.98;;;;;;;1.79;91.33;98493.78;2247550;79;21008;-60
2022/04/10 04:56:56;;;;;;;24.93;9.40;;;;;;;2.02;89.84;98497.41;2242741;79;20981;-59
2022/04/10 04:59:57;;;;;;;28.83;10.70;;;;;;;2.19;88.83;98502.89;2237029;79;21543;-59
2022/04/10 05:02:59;;;;;;;27.93;10.10;;;;;;;2.42;87.43;98509.06;2240249;79;21020;-60
2022/04/10 05:06:00;;;;;;;25.60;9.28;;;;;;;2.65;86.55;98510.89;2243951;78;21516;-60
2022/04/10 05:09:02;;;;;;;24.07;8.80;;;;;;;2.86;86.16;98518.38;2226613;79;21111;-60
2022/04/10 05:12:03;;;;;;;26.85;9.30;;;;;;;3.08;85.07;98518.47;2241476;79;20984;-60
2022/04/10 05:15:07;;;;;;;28.62;8.98;;;;;;;3.29;84.67;98523.34;2220503;79;21079;-59
2022/04/10 05:18:08;;;;;;;26.60;8.60;;;;;;;3.46;83.87;98527.92;2206712;79;21032;-60
2022/04/10 05:21:09;;;;;;;27.15;8.70;;;;;;;3.63;83.06;98531.62;2236913;79;22400;-59
2022/04/10 05:24:11;;;;;;;27.53;8.50;;;;;;;3.79;81.79;98547.02;2237531;79;21099;-60
2022/04/10 05:27:12;;;;;;;24.12;7.70;;;;;;;3.61;82.31;98549.83;2238411;79;21015;-60
2022/04/10 05:30:14;;;;;;;25.72;8.65;;;;;;;3.49;83.12;98548.14;2240158;78;21570;-60
2022/04/10 05:33:16;;;;;;;22.80;8.20;;;;;;;3.53;83.46;98558.34;2274500;78;21140;-59
2022/04/10 05:36:17;;;;;;;28.02;9.48;;;;;;;3.64;83.23;98560.09;2244731;79;21061;-59
2022/04/10 05:39:19;;;;;;;26.23;9.43;;;;;;;3.57;83.18;98559.92;2231695;79;20960;-60
2022/04/10 05:42:20;;;;;;;26.60;9.30;;;;;;;3.67;83.16;98563.03;2239787;79;21112;-59
2022/04/10 05:45:22;;;;;;;27.22;9.23;;;;;;;3.66;83.76;98563.09;2236528;79;20990;-59
2022/04/10 05:48:23;;;;;;;25.32;9.48;;;;;;;3.81;83.11;98569.84;2244891;79;20992;-60
2022/04/10 05:51:24;;;;;;;27.37;9.90;;;;;;;3.83;83.40;98574.14;2245249;79;21538;-60
2022/04/10 05:54:26;;;;;;;25.27;8.83;;;;;;;3.82;83.24;98571.98;2244449;78;20993;-60
2022/04/10 05:57:27;;;;;;;26.52;8.78;;;;;;;3.92;83.70;98573.78;2280682;78;21547;-60
2022/04/10 06:00:29;;;;;;;22.83;7.63;;;;;;;3.99;83.92;98588.22;2241896;79;21061;-60
2022/04/10 06:03:31;;;;;;;26.00;8.78;;;;;;;4.08;82.46;98580.09;2245794;79;21234;-60
2022/04/10 06:06:32;;;;;;;26.42;8.05;;;;;;;4.13;82.77;98581.20;2248725;79;21075;-59
2022/04/10 06:09:34;;;;;;;23.55;8.15;;;;;;;4.23;83.12;98585.59;2230807;79;21035;-60
2022/04/10 06:12:35;;;;;;;26.45;7.80;;;;;;;4.23;83.05;98575.21;2244469;79;21062;-60
2022/04/10 06:15:36;;;;;;;25.57;8.40;;;;;;;4.26;82.05;98581.58;2239965;79;20993;-60
2022/04/10 06:18:38;;;;;;;21.67;7.53;;;;;;;4.27;83.16;98576.32;2236933;79;20956;-60
2022/04/10 06:21:40;;;;;;;22.02;6.95;;;;;;;4.30;82.71;98584.45;2245189;79;21353;-60
2022/04/10 06:24:41;;;;;;;23.50;8.08;;;;;;;4.24;83.42;98586.83;2226913;79;21522;-60
2022/04/10 06:27:43;;;;;;;22.85;7.70;;;;;;;4.32;82.60;98598.20;2225137;79;21044;-60
2022/04/10 06:30:45;;;;;;;22.90;8.33;;;;;;;4.29;82.44;98601.77;2233328;79;21503;-60
2022/04/10 06:33:47;;;;;;;;;;;;;;;4.18;83.07;98597.47;2240232;79;21056;-60
2022/04/10 06:36:49;;;;;;;21.73;7.20;;;;;;;4.24;82.92;98615.83;2232212;79;20090;-59
2022/04/10 06:39:50;;;;;;;25.12;8.48;;;;;;;4.17;82.52;98621.72;2230573;79;21063;-60
2022/04/10 06:42:51;;;;;;;20.97;7.58;;;;;;;4.14;83.35;98609.70;2242697;79;21480;-60
2022/04/10 06:45:53;;;;;;;23.97;8.20;;;;;;;4.12;84.06;98619.31;2231857;79;20989;-60
2022/04/10 06:48:55;;;;;;;25.50;8.48;;;;;;;4.03;82.91;98617.05;2239875;79;21743;-60
2022/04/10 06:51:56;;;;;;;21.60;7.70;;;;;;;4.05;83.42;98615.26;2248802;79;21105;-60
2022/04/10 06:54:58;;;;;;;21.40;7.70;;;;;;;4.17;83.19;98623.02;2226615;79;21487;-61
2022/04/10 06:57:59;;;;;;;20.48;6.90;;;;;;;4.02;82.55;98623.13;2239499;78;21020;-60
2022/04/10 07:01:00;;;;;;;24.82;7.87;;;;;;;4.04;82.54;98624.38;2245004;78;20984;-60
2022/04/10 07:04:02;;;;;;;22.67;7.87;;;;;;;4.14;83.11;98625.28;2244148;78;21032;-60
2022/04/10 07:07:04;;;;;;;19.87;6.97;;;;;;;4.22;81.55;98620.25;2248374;79;21017;-60
2022/04/10 07:10:05;;;;;;;23.05;7.83;;;;;;;4.26;81.64;98618.77;2235326;79;21769;-60
2022/04/10 07:13:07;;;;;;;24.67;7.60;;;;;;;4.38;78.55;98625.22;2240929;79;20997;-60
2022/04/10 07:16:09;;;;;;;22.32;7.92;;;;;;;4.57;81.04;98622.77;2231138;79;22221;-60
2022/04/10 07:19:11;;;;;;;;;;;;;;;4.77;78.70;98628.47;2240997;79;21087;-60
2022/04/10 07:25:15;;;;;;;21.95;6.17;;;;;;;4.95;75.95;98637.72;2210975;79;21079;-60
2022/04/10 07:28:18;;;;;;;21.03;6.60;;;;;;;5.03;76.12;98643.45;2242794;79;21027;-60
2022/04/10 07:31:20;;;;;;;20.20;6.22;;;;;;;5.06;77.93;98642.46;2230095;79;20984;-59
2022/04/10 07:34:21;;;;;;;19.67;6.20;;;;;;;5.16;74.91;98649.00;2228500;79;21514;-60
2022/04/10 07:37:23;;;;;;;20.62;6.20;;;;;;;5.08;74.00;98656.26;2240708;79;21005;-60
2022/04/10 07:40:25;;;;;;;19.70;5.90;;;;;;;5.30;74.45;98644.06;2239030;79;21488;-60
2022/04/10 07:43:27;;;;;;;20.40;6.00;;;;;;;5.57;73.96;98646.37;2244759;78;20993;-60
2022/04/10 07:49:31;;;;;;;20.35;5.28;;;;;;;5.92;71.00;98665.25;2222980;79;21005;-60
2022/04/10 07:52:33;;;;;;;21.23;5.45;;;;;;;5.93;70.76;98662.58;2241913;78;21100;-60
2022/04/10 07:55:34;;;;;;;16.53;5.00;;;;;;;6.24;70.65;98675.56;2285285;77;21063;-60
2022/04/10 07:58:37;;;;;;;17.80;5.45;;;;;;;6.30;68.58;98671.83;2276813;77;21243;-60
2022/04/10 08:01:38;;;;;;;;;;;;;;;6.00;69.74;98668.40;2243067;78;21055;-60
2022/04/10 08:04:40;;;;;;;22.85;5.53;;;;;;;6.03;70.19;98670.42;2245164;78;20103;-60
2022/04/10 08:07:44;;;;;;;17.00;5.15;;;;;;;5.89;69.96;98666.26;2245849;78;20997;-60
2022/04/10 08:10:45;;;;;;;16.80;4.80;;;;;;;6.15;70.67;98657.73;2233370;78;21074;-60
2022/04/10 08:13:46;;;;;;;20.50;5.35;;;;;;;6.83;70.43;98652.81;2238093;79;21541;-60
2022/04/10 08:16:48;;;;;;;20.37;5.25;;;;;;;7.16;67.49;98659.08;2246106;79;20961;-60
2022/04/10 08:19:49;;;;;;;21.12;5.33;;;;;;;7.28;67.47;98659.75;2236733;79;21000;-60
2022/04/10 08:22:53;;;;;;;17.50;4.47;;;;;;;7.52;65.73;98670.72;2239921;79;20997;-59
2022/04/10 08:25:54;;;;;;;17.70;4.28;;;;;;;7.68;62.47;98682.52;2218651;79;21017;-60
2022/04/10 08:28:56;;;;;;;18.40;3.95;;;;;;;7.30;62.49;98673.58;2238080;79;21519;-60
2022/04/10 08:31:57;;;;;;;17.98;4.37;;;;;;;7.72;64.02;98666.25;2232057;79;20970;-59
2022/04/10 08:34:59;;;;;;;20.23;4.75;;;;;;;7.71;60.33;98685.44;2240602;79;21083;-60
2022/04/10 08:38:00;;;;;;;16.17;3.47;;;;;;;8.12;63.35;98671.99;2245314;79;21028;-60
2022/04/10 08:41:02;;;;;;;16.77;3.90;;;;;;;8.21;58.77;98691.08;2241476;79;20993;-60
2022/04/10 08:44:03;;;;;;;17.27;3.80;;;;;;;8.02;58.01;98689.08;2241632;79;21040;-60
2022/04/10 08:47:05;;;;;;;15.13;3.55;;;;;;;7.78;56.02;98689.42;2242218;78;20996;-59
2022/04/10 08:50:07;;;;;;;15.32;3.60;;;;;;;7.82;54.90;98690.95;2281839;78;21544;-60
2022/04/10 08:53:09;;;;;;;;;;;;;;;7.85;58.12;98689.48;2241745;79;21163;-60
2022/04/10 08:56:10;;;;;;;15.00;3.35;;;;;;;7.90;58.04;98684.88;2235969;79;20094;-60
2022/04/10 08:59:11;;;;;;;13.48;3.15;;;;;;;8.02;55.54;98690.39;2247652;78;21051;-59
2022/04/10 09:02:13;;;;;;;15.43;3.20;;;;;;;7.94;52.88;98686.86;2284004;77;20980;-59
2022/04/10 09:05:15;;;;;;;12.82;2.75;;;;;;;7.84;53.47;98690.40;2280149;77;21093;-59
2022/04/10 09:08:17;;;;;;;12.47;3.20;;;;;;;7.72;54.17;98697.11;2279947;77;21043;-59
2022/04/10 09:11:18;;;;;;;15.58;3.37;;;;;;;7.88;54.78;98693.23;2282234;77;20978;-60
2022/04/10 09:14:22;;;;;;;14.33;3.10;;;;;;;8.14;54.52;98691.86;2280723;77;20988;-60
2022/04/10 09:17:23;;;;;;;15.43;3.92;;;;;;;8.28;53.48;98703.36;2258893;78;20989;-60
2022/04/10 09:20:24;;;;;;;12.97;3.13;;;;;;;8.07;53.69;98698.81;2280065;77;21032;-60
2022/04/10 09:23:26;;;;;;;13.25;3.05;;;;;;;8.23;53.72;98705.37;2278401;77;20989;-60
2022/04/10 09:26:27;;;;;;;12.88;2.80;;;;;;;8.11;52.83;98701.64;2284635;77;21029;-60
2022/04/10 09:29:30;;;;;;;11.00;2.73;;;;;;;7.84;53.63;98690.40;2280104;77;20988;-60
2022/04/10 09:32:32;;;;;;;12.33;2.58;;;;;;;7.66;52.25;98707.01;2285424;77;21535;-60
2022/04/10 09:35:33;;;;;;;13.68;3.10;;;;;;;7.42;53.42;98707.34;2281335;77;20946;-61
2022/04/10 09:38:36;;;;;;;11.10;2.50;;;;;;;7.31;54.60;98694.81;2242129;79;21012;-60
2022/04/10 09:41:37;;;;;;;;;;;;;;;7.18;54.39;98705.48;2241584;79;20990;-60
2022/04/10 09:44:39;;;;;;;15.00;2.90;;;;;;;7.16;54.79;98709.94;2226751;79;20094;-60
2022/04/10 09:47:40;;;;;;;11.22;2.80;;;;;;;7.32;56.10;98708.25;2242177;79;21012;-60
2022/04/10 09:50:42;;;;;;;14.78;2.92;;;;;;;7.33;53.57;98719.55;2279650;77;21024;-60
2022/04/10 09:53:43;;;;;;;11.90;2.67;;;;;;;7.48;56.92;98710.94;2280885;77;21028;-61
2022/04/10 09:56:44;;;;;;;11.10;2.42;;;;;;;7.46;53.88;98722.77;2278879;78;20981;-60
2022/04/10 09:59:46;;;;;;;13.60;2.80;;;;;;;7.47;53.04;98714.49;2282293;77;21523;-60
2022/04/10 10:02:48;;;;;;;10.53;2.62;;;;;;;7.37;55.60;98717.15;2280828;77;21005;-60
2022/04/10 10:05:49;;;;;;;13.70;2.70;;;;;;;7.56;57.00;98710.58;2279544;77;20985;-60
2022/04/10 10:08:51;;;;;;;15.13;2.70;;;;;;;7.60;55.38;98719.47;2279162;77;21496;-60
2022/04/10 10:11:53;;;;;;;13.53;2.90;;;;;;;7.69;55.22;98716.02;2286856;77;21036;-59
2022/04/10 10:14:54;;;;;;;16.33;2.97;;;;;;;7.74;56.30;98705.72;2283159;77;21561;-60
2022/04/10 10:17:56;;;;;;;13.62;2.70;;;;;;;8.01;56.00;98709.11;2245788;78;21040;-60
2022/04/10 10:20:57;;;;;;;11.22;2.83;;;;;;;8.24;53.15;98699.22;2240772;79;21075;-60
2022/04/10 10:23:59;;;;;;;8.88;2.65;;;;;;;8.12;52.94;98722.46;2244299;78;20990;-60
2022/04/10 10:27:00;;;;;;;13.35;3.27;;;;;;;7.88;52.83;98724.58;2274337;78;21011;-59
2022/04/10 10:30:02;;;;;;;13.03;2.90;;;;;;;7.83;53.25;98723.98;2250571;79;20992;-59
2022/04/10 10:33:03;;;;;;;15.90;3.85;;;;;;;7.91;54.13;98720.97;2249500;79;21004;-60
2022/04/10 10:36:05;;;;;;;11.60;2.92;;;;;;;8.17;54.40;98704.39;2232901;79;20950;-59
2022/04/10 10:39:06;;;;;;;14.23;2.70;;;;;;;8.23;52.71;98701.01;2232892;79;21464;-60
2022/04/10 10:42:08;;;;;;;14.33;3.10;;;;;;;8.38;53.55;98716.31;2229076;79;21107;-60
2022/04/10 10:45:09;;;;;;;14.35;2.60;;;;;;;8.52;51.68;98705.59;2244982;79;21676;-59
2022/04/10 10:48:11;;;;;;;12.98;2.72;;;;;;;8.61;51.77;98702.02;2237875;79;21027;-60
2022/04/10 10:51:12;;;;;;;15.85;2.55;;;;;;;8.96;50.19;98694.45;2237686;79;21112;-60
2022/04/10 10:54:13;;;;;;;14.43;3.00;;;;;;;8.98;50.89;98703.08;2240376;78;21000;-61
2022/04/10 10:57:15;;;;;;;12.50;2.70;;;;;;;9.07;51.29;98709.56;2236593;79;20987;-61
2022/04/10 11:00:16;;;;;;;12.78;2.85;;;;;;;8.91;51.10;98697.81;2236307;79;21015;-60
2022/04/10 11:03:18;;;;;;;10.98;2.52;;;;;;;9.30;51.43;98699.08;2241692;79;20984;-60
2022/04/10 11:06:19;;;;;;;10.97;2.60;;;;;;;9.43;49.96;98703.97;2229797;79;21059;-61
2022/04/10 11:09:21;;;;;;;11.40;2.80;;;;;;;9.39;49.15;98710.79;2240601;78;21024;-61
2022/04/10 11:12:23;;;;;;;10.57;2.33;;;;;;;9.46;52.11;98695.10;2239749;79;21074;-60
2022/04/10 11:15:24;;;;;;;11.93;2.80;;;;;;;9.37;49.64;98718.73;2226692;79;21082;-60
2022/04/10 11:18:25;;;;;;;9.95;2.25;;;;;;;9.17;47.19;98705.00;2237446;79;20945;-60
2022/04/10 11:21:27;;;;;;;14.38;3.22;;;;;;;8.83;46.99;98719.14;2243136;79;21633;-60
2022/04/10 11:24:29;;;;;;;11.25;2.33;;;;;;;8.63;48.82;98717.18;2234724;79;21052;-60
2022/04/10 11:27:31;;;;;;;10.78;2.80;;;;;;;8.72;48.02;98721.06;2236786;79;21515;-60
2022/04/10 11:30:32;;;;;;;13.68;2.92;;;;;;;8.37;48.11;98726.38;2241715;79;21044;-60
2022/04/10 11:33:33;;;;;;;11.43;2.42;;;;;;;8.54;49.32;98726.81;2236972;79;21481;-60
2022/04/10 11:36:35;;;;;;;15.43;2.80;;;;;;;8.70;48.23;98719.45;2236462;79;21014;-60
2022/04/10 11:39:36;;;;;;;11.50;2.15;;;;;;;8.69;49.45;98715.14;2238110;79;21036;-60
2022/04/10 11:42:38;;;;;;;12.85;2.50;;;;;;;8.90;49.02;98711.80;2234397;79;20964;-59
2022/04/10 11:45:39;;;;;;;10.53;2.55;;;;;;;8.99;49.28;98712.14;2240293;79;21013;-60
2022/04/10 11:48:41;;;;;;;14.05;2.67;;;;;;;8.87;48.40;98718.52;2241203;79;21017;-60
2022/04/10 11:51:42;;;;;;;10.50;2.60;;;;;;;8.93;49.93;98726.85;2242860;79;21134;-60
2022/04/10 11:54:46;;;;;;;12.23;2.45;;;;;;;8.78;48.93;98727.25;2243157;79;21021;-59
2022/04/10 11:57:47;;;;;;;10.00;2.45;;;;;;;8.91;48.33;98735.73;2227093;79;20967;-60
2022/04/10 12:00:49;;;;;;;13.97;2.80;;;;;;;9.04;48.57;98738.48;2228144;79;21086;-59
2022/04/10 12:03:50;;;;;;;14.90;2.87;;;;;;;8.81;48.07;98724.46;2242918;79;21020;-60
2022/04/10 12:06:52;;;;;;;10.65;2.83;;;;;;;8.84;49.04;98736.05;2243787;79;21033;-60
2022/04/10 12:09:55;;;;;;;14.07;2.95;;;;;;;8.52;50.34;98734.36;2216711;79;21059;-60
2022/04/10 12:12:59;;;;;;;18.17;3.83;;;;;;;8.50;50.92;98729.21;2217970;79;21508;-60
2022/04/10 12:16:00;;;;;;;14.55;3.15;;;;;;;9.33;51.78;98727.21;2240825;79;21003;-60
2022/04/10 12:19:01;;;;;;;10.00;2.90;;;;;;;9.43;49.60;98741.09;2235241;79;21511;-60
2022/04/10 12:22:03;;;;;;;11.63;2.92;;;;;;;8.98;52.37;98740.53;2233177;79;21048;-60
2022/04/10 12:25:04;;;;;;;9.70;2.75;;;;;;;8.89;53.61;98742.81;2228407;79;21019;-60
2022/04/10 12:28:06;;;;;;;11.25;2.87;;;;;;;9.06;52.87;98742.70;2240472;79;20983;-60
2022/04/10 12:31:07;;;;;;;12.58;3.40;;;;;;;9.12;52.67;98737.15;2244119;79;21031;-60
2022/04/10 12:34:09;;;;;;;10.93;2.62;;;;;;;9.47;53.30;98733.45;2236955;79;20992;-60
2022/04/10 12:37:10;;;;;;;11.90;3.00;;;;;;;10.25;51.36;98720.07;2244264;79;20981;-60
2022/04/10 12:40:11;;;;;;;12.80;3.30;;;;;;;10.27;48.95;98727.84;2232634;78;21590;-59
2022/04/10 12:43:13;;;;;;;11.12;3.10;;;;;;;9.35;50.79;98728.43;2239815;79;20997;-60
2022/04/10 12:46:14;;;;;;;8.88;2.70;;;;;;;9.35;51.32;98723.20;2241547;79;21507;-61
2022/04/10 12:49:17;;;;;;;13.62;2.92;;;;;;;9.48;49.89;98716.78;2246213;79;21035;-60
2022/04/10 12:52:19;;;;;;;16.90;3.15;;;;;;;9.48;51.15;98736.42;2237157;79;21000;-60
2022/04/10 12:55:21;;;;;;;12.60;3.00;;;;;;;9.56;50.32;98717.19;2242154;79;21048;-60
2022/04/10 12:58:23;;;;;;;9.10;2.40;;;;;;;9.77;50.86;98716.40;2236662;79;21008;-60
2022/04/10 13:01:24;;;;;;;11.90;3.10;;;;;;;9.73;49.36;98716.68;2239240;79;21020;-61
2022/04/10 13:04:26;;;;;;;13.83;3.10;;;;;;;9.64;51.67;98707.11;2238749;79;20996;-60
2022/04/10 13:07:27;;;;;;;15.95;3.60;;;;;;;9.91;50.55;98705.08;2244313;79;20992;-60
2022/04/10 13:10:29;;;;;;;10.78;2.77;;;;;;;10.36;48.61;98708.48;2243905;79;21555;-60
2022/04/10 13:13:30;;;;;;;14.43;3.33;;;;;;;11.01;47.50;98698.33;2231696;79;21007;-60
2022/04/10 13:16:32;;;;;;;12.65;3.02;;;;;;;11.05;46.39;98703.75;2232394;79;21042;-61
2022/04/10 13:19:33;;;;;;;11.12;2.70;;;;;;;10.69;45.80;98698.14;2242979;79;20993;-61
2022/04/10 13:22:35;;;;;;;9.33;2.72;;;;;;;10.47;47.10;98701.25;2232204;79;20976;-60
2022/04/10 13:25:36;;;;;;;11.43;3.00;;;;;;;10.25;47.70;98695.17;2236375;79;20995;-61
2022/04/10 13:28:38;;;;;;;12.87;2.53;;;;;;;10.15;46.21;98695.37;2234362;79;21063;-60
2022/04/10 13:31:40;;;;;;;12.07;2.40;;;;;;;10.14;45.36;98697.60;2237316;79;21720;-60
2022/04/10 13:34:42;;;;;;;13.53;2.70;;;;;;;10.32;45.85;98689.09;2244041;79;21138;-60
2022/04/10 13:37:44;;;;;;;10.43;2.25;;;;;;;10.20;44.40;98690.66;2233762;79;21092;-60
2022/04/10 13:40:45;;;;;;;8.40;2.15;;;;;;;10.37;45.61;98693.14;2237640;79;21071;-60
2022/04/10 13:43:47;;;;;;;13.73;2.83;;;;;;;10.96;44.29;98684.20;2243481;79;21015;-60
2022/04/10 13:46:48;;;;;;;11.95;2.60;;;;;;;11.15;42.87;98682.52;2244801;79;21511;-60
2022/04/10 13:49:50;;;;;;;8.73;2.10;;;;;;;11.32;40.59;98690.60;2239146;79;21069;-60
2022/04/10 13:52:51;;;;;;;8.95;2.30;;;;;;;11.35;41.63;98686.91;2232193;79;21749;-60
2022/04/10 13:55:53;;;;;;;8.10;2.00;;;;;;;11.77;39.68;98690.23;2233749;79;21076;-61
2022/04/10 13:58:54;;;;;;;11.80;2.52;;;;;;;11.72;38.60;98666.91;2287659;77;21020;-61
2022/04/10 14:01:56;;;;;;;11.60;2.20;;;;;;;12.02;38.07;98667.55;2283379;77;21467;-60
2022/04/10 14:04:57;;;;;;;11.60;2.35;;;;;;;12.15;40.44;98671.00;2285687;77;20981;-60
2022/04/10 14:07:59;;;;;;;9.30;2.00;;;;;;;11.98;40.52;98678.73;2284595;77;21523;-60
2022/04/10 14:11:01;;;;;;;10.85;2.72;;;;;;;11.27;37.73;98680.38;2283171;77;21546;-60
2022/04/10 14:14:03;;;;;;;8.10;2.00;;;;;;;10.45;38.95;98682.16;2284782;77;21562;-60
2022/04/10 14:17:04;;;;;;;10.98;2.17;;;;;;;9.96;39.98;98688.63;2279659;77;21084;-61
2022/04/10 14:20:06;;;;;;;5.30;1.75;;;;;;;9.68;42.41;98689.42;2283482;77;21048;-60